Captain Ed — WDF6338 — position and weather

sailwx.info

Track history (hours):
 
Tides and Currents Weather Stations Pressure Air Temp Water Temp Dewpoint Dewpoint Depression Visibility Wind Speed Wind Dir Waves Ship Positions

Captain Ed

Owner: Norfolk Dredging Company, Chesapeake, VA. More information available from US FCC via Universal Licensing System and Coast Guard Vessel Documentation Center.

Last reported at 2016-Jun-28 20:30 UTC. Time now 2016-Jun-28 22:22 UTC.
Position N 36°44' W 076°17'.

Length 22 m; draft 3 m.

Type: Tug. MMSI: 367473210.

Date/timePositionNaut miles runAvg speedWind from/ knotsBaromVisibWave heightAir tempDewpointWater temp
2016-Jun-28 20:30N 36°44' W 076°17'3 3.1
2016-Jun-28 19:23N 36°47' W 076°18'3 3.3
2016-Jun-28 18:22N 36°50' W 076°17'0 0.3
2016-Jun-28 17:18N 36°50' W 076°17'0 0.1
2016-Jun-28 16:10N 36°50' W 076°17'0 0.0
2016-Jun-28 15:16N 36°50' W 076°17'0 0.0
2016-Jun-28 14:26N 36°50' W 076°17'0 0.1
2016-Jun-28 12:25N 36°50' W 076°17'1 1.4
2016-Jun-28 11:30N 36°49' W 076°17'  
2016-Jun-24 22:05N 36°43' W 076°14'1 1.0
2016-Jun-24 21:22N 36°43' W 076°15'3 3.5
2016-Jun-24 20:34N 36°45' W 076°18'6 5.9
2016-Jun-24 19:32N 36°51' W 076°18'1 0.7
2016-Jun-24 18:30N 36°52' W 076°19'2 2.5
2016-Jun-24 17:33N 36°50' W 076°17'0 0.0
2016-Jun-24 16:33N 36°50' W 076°17'0 0.0
2016-Jun-24 15:31N 36°50' W 076°17'0 0.0
2016-Jun-24 14:33N 36°50' W 076°17'0 0.0
2016-Jun-24 13:33N 36°50' W 076°17'0 0.0
2016-Jun-24 11:32N 36°50' W 076°17'0 0.0
2016-Jun-24 10:30N 36°50' W 076°17'5 5.2
2016-Jun-24 09:33N 36°45' W 076°18'  
2016-Jun-20 12:06N 35°22' W 076°34'5 7.3
2016-Jun-20 11:22N 35°17' W 076°36'6 7.2
2016-Jun-20 10:33N 35°11' W 076°34'7 6.7
2016-Jun-20 09:33N 35°04' W 076°33'8 8.4
2016-Jun-20 08:33N 34°60' W 076°41'6 5.9
2016-Jun-20 07:33N 34°54' W 076°41'6 5.8
2016-Jun-20 06:33N 34°48' W 076°41'5 5.2
2016-Jun-20 05:33N 34°43' W 076°44'9 8.5
2016-Jun-20 04:33N 34°43' W 076°54'8 7.8
2016-Jun-20 03:33N 34°41' W 077°03'7 7.3
2016-Jun-20 02:33N 34°38' W 077°12'  
Track history (hours):
 
Tides and Currents Weather Stations Pressure Air Temp Water Temp Dewpoint Dewpoint Depression Visibility Wind Speed Wind Dir Waves Ship Positions

Captain Ed

Owner: Norfolk Dredging Company, Chesapeake, VA. More information available from US FCC via Universal Licensing System and Coast Guard Vessel Documentation Center.

Last reported at 2016-Jun-28 20:30 UTC. Time now 2016-Jun-28 22:22 UTC.
Position N 36°44' W 076°17'.

Length 22 m; draft 3 m.

Type: Tug. MMSI: 367473210.

Date/timePositionNaut miles runAvg speedWind from/ knotsBaromVisibWave heightAir tempDewpointWater temp
2016-Jun-28 20:30N 36°44' W 076°17'3 3.1
2016-Jun-28 19:23N 36°47' W 076°18'3 3.3
2016-Jun-28 18:22N 36°50' W 076°17'0 0.3
2016-Jun-28 17:18N 36°50' W 076°17'0 0.1
2016-Jun-28 16:10N 36°50' W 076°17'0 0.0
2016-Jun-28 15:16N 36°50' W 076°17'0 0.0
2016-Jun-28 14:26N 36°50' W 076°17'0 0.1
2016-Jun-28 12:25N 36°50' W 076°17'1 1.4
2016-Jun-28 11:30N 36°49' W 076°17'  
2016-Jun-24 22:05N 36°43' W 076°14'1 1.0
2016-Jun-24 21:22N 36°43' W 076°15'3 3.5
2016-Jun-24 20:34N 36°45' W 076°18'6 5.9
2016-Jun-24 19:32N 36°51' W 076°18'1 0.7
2016-Jun-24 18:30N 36°52' W 076°19'2 2.5
2016-Jun-24 17:33N 36°50' W 076°17'0 0.0
2016-Jun-24 16:33N 36°50' W 076°17'0 0.0
2016-Jun-24 15:31N 36°50' W 076°17'0 0.0
2016-Jun-24 14:33N 36°50' W 076°17'0 0.0
2016-Jun-24 13:33N 36°50' W 076°17'0 0.0
2016-Jun-24 11:32N 36°50' W 076°17'0 0.0
2016-Jun-24 10:30N 36°50' W 076°17'5 5.2
2016-Jun-24 09:33N 36°45' W 076°18'  
2016-Jun-20 12:06N 35°22' W 076°34'5 7.3
2016-Jun-20 11:22N 35°17' W 076°36'6 7.2
2016-Jun-20 10:33N 35°11' W 076°34'7 6.7
2016-Jun-20 09:33N 35°04' W 076°33'8 8.4
2016-Jun-20 08:33N 34°60' W 076°41'6 5.9
2016-Jun-20 07:33N 34°54' W 076°41'6 5.8
2016-Jun-20 06:33N 34°48' W 076°41'5 5.2
2016-Jun-20 05:33N 34°43' W 076°44'9 8.5
2016-Jun-20 04:33N 34°43' W 076°54'8 7.8
2016-Jun-20 03:33N 34°41' W 077°03'7 7.3
2016-Jun-20 02:33N 34°38' W 077°12'  

Dump ship's entire track history